createdAt,value
2016-11-16T17:49:30.533Z,995.24
2016-11-16T17:50:30.550Z,995.26
2016-11-16T17:51:30.571Z,995.17
2016-11-16T17:52:30.588Z,995.22
2016-11-16T17:53:30.602Z,995.23
2016-11-16T17:54:30.624Z,995.18
2016-11-16T17:55:30.649Z,995.19
2016-11-16T17:56:30.671Z,995.24
2016-11-16T17:57:30.695Z,995.24
2016-11-16T17:58:30.719Z,995.24
2016-11-16T17:59:30.740Z,995.26
2016-11-16T18:00:30.761Z,995.27
2016-11-16T18:01:30.790Z,995.26
2016-11-16T18:02:30.814Z,995.25
2016-11-16T18:03:30.848Z,995.26
2016-11-16T18:04:30.859Z,995.2
2016-11-16T18:05:30.884Z,995.16
2016-11-16T18:06:30.913Z,995.2
2016-11-16T18:07:31.300Z,995.16
2016-11-16T18:08:30.961Z,995.12
2016-11-16T18:09:30.990Z,995.12
2016-11-16T18:10:31.012Z,995.1
2016-11-16T18:11:31.035Z,995.12
2016-11-16T18:12:31.069Z,995.09
2016-11-16T18:13:31.084Z,995.14
2016-11-16T18:14:31.117Z,995.13
2016-11-16T18:15:31.141Z,995.14
2016-11-16T18:16:31.166Z,995.12
2016-11-16T18:17:31.195Z,995.14
2016-11-16T18:18:31.218Z,995.12
2016-11-16T18:19:31.247Z,995.06
2016-11-16T18:20:31.272Z,995.06
2016-11-16T18:21:31.424Z,995.11
2016-11-16T18:22:31.330Z,995.08
2016-11-16T18:23:31.357Z,995.12
2016-11-16T18:24:31.384Z,995.08
2016-11-16T18:25:31.412Z,995.1
2016-11-16T18:26:31.436Z,995.16
2016-11-16T18:27:31.462Z,995.15
2016-11-16T18:28:31.490Z,995.14
2016-11-16T18:29:31.519Z,995.07
2016-11-16T18:30:31.544Z,995.09
2016-11-16T18:31:31.577Z,995.03
2016-11-16T18:32:31.601Z,995.07
2016-11-16T18:33:31.630Z,995.07
2016-11-16T18:34:31.654Z,995.05
2016-11-16T18:35:31.688Z,994.99
2016-11-16T18:36:31.704Z,995.02
2016-11-16T18:37:31.741Z,995
2016-11-16T18:38:31.755Z,994.96
2016-11-16T18:39:31.799Z,995
2016-11-16T18:40:31.820Z,995.01
2016-11-16T18:41:31.854Z,994.98
2016-11-16T18:42:31.881Z,994.92
2016-11-16T18:43:31.909Z,994.93
2016-11-16T18:44:31.930Z,994.89
2016-11-16T18:45:31.967Z,994.84
2016-11-16T18:46:31.996Z,994.92
2016-11-16T18:47:32.017Z,994.93
2016-11-16T18:48:32.040Z,994.93
2016-11-16T18:49:32.079Z,994.96
2016-11-16T18:50:32.103Z,994.88
2016-11-16T18:51:32.135Z,994.97
2016-11-16T18:52:32.152Z,994.88
2016-11-16T18:53:32.186Z,994.9
2016-11-16T18:54:32.214Z,994.89
2016-11-16T18:55:32.249Z,994.86
2016-11-16T18:56:32.276Z,994.81
2016-11-16T18:57:32.305Z,994.87
2016-11-16T18:58:32.326Z,994.89
2016-11-16T18:59:32.362Z,994.86
2016-11-16T19:00:32.387Z,994.84
2016-11-16T19:01:32.416Z,994.84
2016-11-16T19:02:32.441Z,994.82
2016-11-16T19:03:32.475Z,994.84
2016-11-16T19:04:32.502Z,994.88
2016-11-16T19:05:32.523Z,994.84
2016-11-16T19:06:32.556Z,994.87
2016-11-16T19:07:32.578Z,994.89
2016-11-16T19:08:32.603Z,994.89
2016-11-16T19:09:32.634Z,994.89
2016-11-16T19:10:32.662Z,994.87
2016-11-16T19:11:32.691Z,994.84
2016-11-16T19:12:32.724Z,994.9
2016-11-16T19:13:32.740Z,994.87
2016-11-16T19:14:32.769Z,994.85
2016-11-16T19:15:32.802Z,994.87
2016-11-16T19:16:32.822Z,994.83
2016-11-16T19:17:32.864Z,994.85
2016-11-16T19:18:32.888Z,994.83
2016-11-16T19:19:32.916Z,994.84
2016-11-16T19:20:32.946Z,994.83
2016-11-16T19:21:32.974Z,994.84
2016-11-16T19:22:33.004Z,994.83
2016-11-16T19:23:33.020Z,994.81
2016-11-16T19:24:33.057Z,994.79
2016-11-16T19:25:33.091Z,994.8
2016-11-16T19:26:33.112Z,994.75
2016-11-16T19:27:33.140Z,994.78
2016-11-16T19:28:33.157Z,994.72
2016-11-16T19:29:33.197Z,994.76
2016-11-16T19:30:33.222Z,994.74
2016-11-16T19:31:33.251Z,994.67
2016-11-16T19:32:33.280Z,994.65
2016-11-16T19:33:33.316Z,994.67
2016-11-16T19:34:33.354Z,994.68
2016-11-16T19:35:33.366Z,994.67
2016-11-16T19:36:33.395Z,994.66
2016-11-16T19:37:33.424Z,994.68
2016-11-16T19:38:33.457Z,994.73
2016-11-16T19:39:33.482Z,994.69
2016-11-16T19:40:33.507Z,994.73
2016-11-16T19:41:33.532Z,994.7
2016-11-16T19:42:33.569Z,994.66
2016-11-16T19:43:33.594Z,994.63
2016-11-16T19:44:33.622Z,994.63
2016-11-16T19:45:33.646Z,994.63
2016-11-16T19:46:33.679Z,994.57
2016-11-16T19:47:33.708Z,994.66
2016-11-16T19:48:33.729Z,994.57
2016-11-16T19:49:33.763Z,994.65
2016-11-16T19:50:33.790Z,994.58
2016-11-16T19:51:33.811Z,994.62
2016-11-16T19:52:33.839Z,994.53
2016-11-16T19:53:33.872Z,994.6
2016-11-16T19:54:33.901Z,994.55
2016-11-16T19:55:33.923Z,994.55
2016-11-16T19:56:33.951Z,994.55
2016-11-16T19:57:33.979Z,994.55
2016-11-16T19:58:34.016Z,994.63
2016-11-16T19:59:34.041Z,994.61
2016-11-16T20:00:34.070Z,994.65
2016-11-16T20:01:34.102Z,994.62
2016-11-16T20:02:34.123Z,994.61
2016-11-16T20:03:34.153Z,994.66
2016-11-16T20:04:34.173Z,994.59
2016-11-16T20:05:34.205Z,994.62
2016-11-16T20:06:34.238Z,994.59
2016-11-16T20:07:34.268Z,994.6
2016-11-16T20:08:34.291Z,994.55
2016-11-16T20:09:34.320Z,994.58
2016-11-16T20:10:34.353Z,994.51
2016-11-16T20:11:34.369Z,994.59
2016-11-16T20:12:34.407Z,994.56
2016-11-16T20:13:34.440Z,994.67
2016-11-16T20:14:34.448Z,994.65
2016-11-16T20:15:34.494Z,994.66
2016-11-16T20:16:34.518Z,994.65
2016-11-16T20:17:34.550Z,994.63
2016-11-16T20:18:34.572Z,994.67
2016-11-16T20:19:34.596Z,994.68
2016-11-16T20:20:34.625Z,994.7
2016-11-16T20:21:34.656Z,994.72
2016-11-16T20:22:34.682Z,994.71
2016-11-16T20:23:34.713Z,994.74
2016-11-16T20:24:34.744Z,994.68
2016-11-16T20:25:34.771Z,994.57
2016-11-16T20:26:34.838Z,994.67
2016-11-16T20:27:34.821Z,994.67
2016-11-16T20:28:34.858Z,994.64
2016-11-16T20:29:34.878Z,994.56
2016-11-16T20:30:34.912Z,994.54
2016-11-16T20:31:34.936Z,994.58
2016-11-16T20:32:34.956Z,994.55
2016-11-16T20:33:34.985Z,994.59
2016-11-16T20:34:35.018Z,994.54
2016-11-16T20:35:35.047Z,994.53
2016-11-16T20:36:35.080Z,994.54
2016-11-16T20:37:35.104Z,994.5
2016-11-16T20:38:35.135Z,994.54
2016-11-16T20:39:35.157Z,994.57
2016-11-16T20:40:35.191Z,994.59
2016-11-16T20:41:35.215Z,994.56
2016-11-16T20:42:35.240Z,994.55
2016-11-16T20:43:35.268Z,994.6
2016-11-16T20:44:35.289Z,994.56
2016-11-16T20:45:35.329Z,994.59
2016-11-16T20:46:35.351Z,994.59
2016-11-16T20:47:35.432Z,994.61
2016-11-16T20:48:35.410Z,994.61
2016-11-16T20:49:35.437Z,994.62
2016-11-16T20:50:35.469Z,994.62
2016-11-16T20:51:35.498Z,994.6
2016-11-16T20:52:35.519Z,994.58
2016-11-16T20:53:35.560Z,994.53
2016-11-16T20:54:35.581Z,994.59
2016-11-16T20:55:35.610Z,994.6
2016-11-16T20:56:35.638Z,994.57
2016-11-16T20:57:35.664Z,994.54
2016-11-16T20:58:35.688Z,994.5
2016-11-16T20:59:35.716Z,994.52
2016-11-16T21:00:35.853Z,994.53
2016-11-16T21:01:35.774Z,994.44
2016-11-16T21:02:35.802Z,994.43
2016-11-16T21:03:35.831Z,994.43
2016-11-16T21:04:35.851Z,994.39
2016-11-16T21:05:35.889Z,994.37
2016-11-16T21:06:35.909Z,994.39
2016-11-16T21:07:35.943Z,994.37
2016-11-16T21:08:35.967Z,994.35
2016-11-16T21:09:35.999Z,994.36
2016-11-16T21:10:36.028Z,994.39
2016-11-16T21:11:36.053Z,994.39
2016-11-16T21:12:36.082Z,994.42
2016-11-16T21:13:36.109Z,994.43
2016-11-16T21:14:36.136Z,994.46
2016-11-16T21:15:36.168Z,994.41
2016-11-16T21:16:36.196Z,994.44
2016-11-16T21:17:36.226Z,994.42
2016-11-16T21:18:36.246Z,994.47
2016-11-16T21:19:36.279Z,994.43
2016-11-16T21:20:36.307Z,994.41
2016-11-16T21:21:36.333Z,994.47
2016-11-16T21:22:36.361Z,994.42
2016-11-16T21:23:36.394Z,994.41
2016-11-16T21:24:36.418Z,994.45
2016-11-16T21:25:36.444Z,994.41
2016-11-16T21:26:36.477Z,994.4
2016-11-16T21:27:36.501Z,994.39
2016-11-16T21:28:36.525Z,994.4
2016-11-16T21:29:36.553Z,994.38
2016-11-16T21:30:36.584Z,994.38
2016-11-16T21:31:36.615Z,994.42
2016-11-16T21:32:36.645Z,994.41
2016-11-16T21:33:36.668Z,994.37
2016-11-16T21:34:36.702Z,994.33
2016-11-16T21:35:36.727Z,994.31
2016-11-16T21:36:36.751Z,994.28
2016-11-16T21:37:36.784Z,994.21
2016-11-16T21:38:36.813Z,994.22
2016-11-16T21:39:36.839Z,994.21
2016-11-16T21:40:36.884Z,994.2
2016-11-16T21:41:36.894Z,994.16
2016-11-16T21:42:36.923Z,994.16
2016-11-16T21:43:36.951Z,994.17
2016-11-16T21:44:36.977Z,994.22
2016-11-16T21:45:37.010Z,994.19
2016-11-16T21:46:37.036Z,994.13
2016-11-16T21:47:37.067Z,994.15
2016-11-16T21:48:37.088Z,994.11
2016-11-16T21:49:37.127Z,994.07
2016-11-16T21:50:37.141Z,994.09
2016-11-16T21:51:37.173Z,994.06
2016-11-16T21:52:37.203Z,994.04
2016-11-16T21:53:37.228Z,994.04
2016-11-16T21:54:37.265Z,994.02
2016-11-16T21:55:37.285Z,993.99
2016-11-16T21:56:37.318Z,993.96
2016-11-16T21:57:37.343Z,993.92
2016-11-16T21:58:37.372Z,993.87
2016-11-16T21:59:37.404Z,993.84
2016-11-16T22:00:37.429Z,993.8
2016-11-16T22:01:37.459Z,993.8
2016-11-16T22:02:37.486Z,993.84
2016-11-16T22:03:37.511Z,993.78
2016-11-16T22:04:37.539Z,993.78
2016-11-16T22:05:37.565Z,993.79
2016-11-16T22:06:37.593Z,993.8
2016-11-16T22:07:37.625Z,993.86
2016-11-16T22:08:37.650Z,993.81
2016-11-16T22:09:37.679Z,993.8
2016-11-16T22:10:37.712Z,993.82
2016-11-16T22:11:37.740Z,993.81
2016-11-16T22:12:37.763Z,993.79
2016-11-16T22:13:37.786Z,993.77
2016-11-16T22:14:37.819Z,993.71
2016-11-16T22:15:37.847Z,993.73
2016-11-16T22:16:37.872Z,993.68
2016-11-16T22:17:37.905Z,993.7
2016-11-16T22:18:37.929Z,993.64
2016-11-16T22:19:37.959Z,993.68
2016-11-16T22:20:37.992Z,993.59
2016-11-16T22:21:38.023Z,993.57
2016-11-16T22:22:38.041Z,993.68
2016-11-16T22:23:38.070Z,993.66
2016-11-16T22:24:38.102Z,993.67
2016-11-16T22:25:38.129Z,993.64
2016-11-16T22:26:38.156Z,993.63
2016-11-16T22:27:38.177Z,993.61
2016-11-16T22:28:38.204Z,993.67
2016-11-16T22:29:38.238Z,993.65
2016-11-16T22:30:38.260Z,993.65
2016-11-16T22:31:38.296Z,993.57
2016-11-16T22:32:38.315Z,993.53
2016-11-16T22:33:38.350Z,993.47
2016-11-16T22:34:38.377Z,993.54
2016-11-16T22:35:38.414Z,993.51
2016-11-16T22:36:38.435Z,993.53
2016-11-16T22:37:38.459Z,993.53
2016-11-16T22:38:38.492Z,993.55
2016-11-16T22:39:38.521Z,993.53
2016-11-16T22:40:38.546Z,993.52
2016-11-16T22:41:38.578Z,993.59
2016-11-16T22:42:38.603Z,993.55
2016-11-16T22:43:38.632Z,993.52
2016-11-16T22:44:38.656Z,993.46
2016-11-16T22:45:38.693Z,993.4
2016-11-16T22:46:38.716Z,993.43
2016-11-16T22:47:38.747Z,993.36
2016-11-16T22:48:38.771Z,993.39
2016-11-16T22:49:38.795Z,993.41
2016-11-16T22:50:38.825Z,993.45
2016-11-16T22:51:38.854Z,993.47
2016-11-16T22:52:38.879Z,993.48
2016-11-16T22:53:38.906Z,993.52
2016-11-16T22:54:38.937Z,993.44
2016-11-16T22:55:38.971Z,993.47
2016-11-16T22:56:38.997Z,993.51
2016-11-16T22:57:39.031Z,993.44
2016-11-16T22:58:39.048Z,993.48
2016-11-16T22:59:39.077Z,993.43
2016-11-16T23:00:39.108Z,993.45
2016-11-16T23:01:39.147Z,993.48
2016-11-16T23:02:39.160Z,993.46
2016-11-16T23:03:39.190Z,993.45
2016-11-16T23:04:39.215Z,993.47
2016-11-16T23:05:39.259Z,993.44
2016-11-16T23:06:39.268Z,993.44
2016-11-16T23:07:39.311Z,993.46
2016-11-16T23:08:39.325Z,993.4
2016-11-16T23:09:39.363Z,993.46
2016-11-16T23:10:39.378Z,993.36
2016-11-16T23:11:39.408Z,993.44
2016-11-16T23:12:39.441Z,993.33
2016-11-16T23:13:39.471Z,993.35
2016-11-16T23:14:39.493Z,993.37
2016-11-16T23:15:39.520Z,993.35
2016-11-16T23:16:39.547Z,993.37
2016-11-16T23:17:39.580Z,993.46
2016-11-16T23:18:39.605Z,993.4
2016-11-16T23:19:39.634Z,993.35
2016-11-16T23:20:39.658Z,993.36
2016-11-16T23:21:39.691Z,993.39
2016-11-16T23:22:39.714Z,993.36
2016-11-16T23:23:39.744Z,993.35
2016-11-16T23:24:39.768Z,993.34
2016-11-16T23:25:39.801Z,993.34
2016-11-16T23:26:39.829Z,993.37
2016-11-16T23:27:39.859Z,993.28
2016-11-16T23:28:39.884Z,993.34
2016-11-16T23:29:39.913Z,993.35
2016-11-16T23:30:39.937Z,993.3
2016-11-16T23:31:39.963Z,993.36
2016-11-16T23:32:39.995Z,993.32
2016-11-16T23:33:40.019Z,993.29
2016-11-16T23:34:40.048Z,993.28
2016-11-16T23:35:40.081Z,993.33
2016-11-16T23:36:40.106Z,993.26
2016-11-16T23:37:40.134Z,993.2
2016-11-16T23:38:40.164Z,993.27
2016-11-16T23:39:40.188Z,993.22
2016-11-16T23:40:40.212Z,993.24
2016-11-16T23:41:40.241Z,993.19
2016-11-16T23:42:40.275Z,993.15
2016-11-16T23:43:40.303Z,993.14
2016-11-16T23:44:40.328Z,993.11
2016-11-16T23:45:40.352Z,993.09
2016-11-16T23:46:40.381Z,993.17
2016-11-16T23:47:40.423Z,993.08
2016-11-16T23:48:40.436Z,993.09
2016-11-16T23:49:40.466Z,993.05
2016-11-16T23:50:40.495Z,993
2016-11-16T23:51:40.524Z,992.95
2016-11-16T23:52:40.545Z,992.96
2016-11-16T23:53:40.583Z,992.95
2016-11-16T23:54:40.609Z,992.91
2016-11-16T23:55:40.631Z,992.89
2016-11-16T23:56:40.656Z,992.81
2016-11-16T23:57:40.689Z,992.86
2016-11-16T23:58:40.717Z,992.82
2016-11-16T23:59:40.742Z,992.81
